Stations météo

réclame
Mon MeteoGroup
Lauwersoog aws, Pays-Bas (6277): Température de l'air & dewpoint: 17.04.2018 03:00:00 - 23.04.2018 03:00:00 (CEST)Lauwersoog aws, Pays-Bas (6277): Température de l'air 5cm: 17.04.2018 03:00:00 - 23.04.2018 03:00:00 (CEST)Lauwersoog aws, Pays-Bas (6277): Vitesse du vent & gusts: 17.04.2018 03:00:00 - 23.04.2018 03:00:00 (CEST)Lauwersoog aws, Pays-Bas (6277): Direction du vent: 17.04.2018 03:00:00 - 23.04.2018 03:00:00 (CEST)Lauwersoog aws, Pays-Bas (6277): Quantités de précipitations: 17.04.2018 03:00:00 - 23.04.2018 03:00:00 (CEST)
Date & Time tt [°C] td [°C] tt 5cm [°C] ff [km/h] ff [knt] fx [km/h] fx [knt] dd rr [mm]
23.04.2018 03:00:00 12,1 10,4 11,3 22 12 29 16 WSW 0,0
23.04.2018 02:00:00 12,9 10,1 12,2 22 12 32 18 WSW 0,0
23.04.2018 01:00:00 14,2 9,9 13,2 22 12 32 18 WSW 0,0
23.04.2018 00:00:00 15,8 10,1 14,6 25 14 36 19 SW 0,0
22.04.2018 23:00:00 16,7 13,5 15,2 14 8 25 14 SSW 0,0
22.04.2018 22:00:00 16,7 13,6 14,8 14 8 22 12 S 0,0
22.04.2018 21:00:00 16,9 14,3 15,5 11 6 22 12 SSW 0,0
22.04.2018 20:00:00 18,9 14,1 18,0 22 12 29 16 W 0,0
22.04.2018 19:00:00 19,9 14,5 19,3 14 8 22 12 WNW 0,0
22.04.2018 18:00:00 22,8 13,0 22,0 14 8 18 10 WSW 0,0
22.04.2018 17:00:00 23,8 12,8 25,2 14 8 22 12 S 0,0
22.04.2018 16:00:00 23,8 11,6 24,2 18 10 29 16 S 0,0
22.04.2018 15:00:00 23,3 10,1 23,9 22 12 29 16 SSE 0,0
22.04.2018 14:00:00 22,4 8,8 23,1 22 12 32 18 SE 0,0
22.04.2018 13:00:00 21,0 8,9 21,5 22 12 32 18 ESE 0,0
22.04.2018 12:00:00 20,0 8,1 20,7 22 12 36 19 SE 0,0
22.04.2018 11:00:00 18,2 8,1 19,1 18 10 25 14 SE 0,0
22.04.2018 10:00:00 14,9 7,7 15,3 22 12 29 16 SE 0,0
22.04.2018 09:00:00 13,5 6,5 13,6 22 12 32 18 ESE 0,0
22.04.2018 08:00:00 11,7 5,3 10,6 22 12 32 18 ESE 0,0
22.04.2018 07:00:00 10,7 5,2 9,4 22 12 36 19 ESE 0,0
22.04.2018 06:00:00 10,0 5,1 8,9 18 10 32 18 SE 0,0
22.04.2018 05:00:00 10,0 4,8 8,9 18 10 29 16 ESE 0,0
22.04.2018 04:00:00 10,1 4,7 8,7 14 8 25 14 ESE 0,0
22.04.2018 03:00:00 10,2 5,4 8,9 14 8 22 12 ESE 0,0
22.04.2018 02:00:00 10,2 5,6 9,0 14 8 22 12 ESE 0,0
22.04.2018 01:00:00 10,5 5,5 9,3 11 6 22 12 ESE 0,0
22.04.2018 00:00:00 11,1 6,7 10,2 14 8 22 12 E 0,0
21.04.2018 23:00:00 11,4 7,7 10,2 14 8 22 12 E 0,0
21.04.2018 22:00:00 12,1 6,3 10,8 18 10 22 12 E 0,0
21.04.2018 21:00:00 12,6 7,1 11,5 18 10 22 12 ENE 0,0
21.04.2018 20:00:00 13,1 6,6 12,2 18 10 22 12 NE 0,0
21.04.2018 19:00:00 13,4 7,6 13,0 18 10 22 12 NE 0,0
21.04.2018 18:00:00 13,6 8,0 14,5 18 10 29 16 NE 0,0
21.04.2018 17:00:00 14,3 7,8 15,6 25 14 32 18 NNE 0,0
21.04.2018 16:00:00 15,8 6,7 17,1 14 8 14 8 NNE 0,0
21.04.2018 15:00:00 15,8 8,2 17,9 4 2 11 6 N 0,0
21.04.2018 14:00:00 15,5 7,8 17,3 7 4 11 6 N 0,0
21.04.2018 13:00:00 14,9 8,2 16,9 7 4 11 6 NNE 0,0
21.04.2018 12:00:00 14,1 8,1 16,1 11 6 18 10 N 0,0
21.04.2018 11:00:00 14,0 9,0 14,9 14 8 18 10 N 0,0
21.04.2018 10:00:00 13,3 8,6 14,6 7 4 14 8 N 0,0
21.04.2018 09:00:00 11,7 8,6 13,3 11 6 14 8 NNW 0,0
21.04.2018 08:00:00 10,6 8,6 9,7 14 8 22 12 N 0,0
21.04.2018 07:00:00 9,7 8,8 8,7 18 10 18 10 NNW 0,0
21.04.2018 06:00:00 9,7 8,8 8,6 11 6 18 10 N 0,0
21.04.2018 05:00:00 9,8 8,9 8,3 14 8 18 10 NNW 0,0
21.04.2018 04:00:00 9,6 8,6 8,5 14 8 25 14 NNW 0,0
21.04.2018 03:00:00 9,5 8,8 8,6 22 12 29 16 NNW 0,0
21.04.2018 02:00:00 9,7 8,7 8,8 18 10 25 14 N 0,0
21.04.2018 01:00:00 9,9 8,8 9,1 25 14 32 18 NNW 0,0
21.04.2018 00:00:00 10,3 9,0 9,5 25 14 32 18 NNW 0,0
20.04.2018 23:00:00 11,2 8,8 10,2 14 8 18 10 NW 0,0
20.04.2018 22:00:00 12,0 9,4 10,8 14 8 22 12 NW 0,0
20.04.2018 21:00:00 12,5 9,2 11,6 18 10 22 12 NW 0,0
20.04.2018 20:00:00 13,4 9,6 12,8 14 8 25 14 NW 0,0
20.04.2018 19:00:00 14,4 10,6 14,8 18 10 25 14 NW 0,0
20.04.2018 18:00:00 15,4 10,7 16,1 18 10 25 14 WNW 0,0
20.04.2018 17:00:00 16,9 11,0 18,2 14 8 32 18 NW 0,0
20.04.2018 16:00:00 20,5 11,3 21,4 18 10 25 14 WNW 0,0
20.04.2018 15:00:00 19,1 11,8 21,3 11 6 18 10 WNW 0,0
20.04.2018 14:00:00 16,9 9,3 18,8 14 8 22 12 WNW 0,0
20.04.2018 13:00:00 17,6 9,3 19,1 22 12 25 14 NW 0,0
20.04.2018 12:00:00 17,9 12,0 19,9 14 8 22 12 NW 0,0
20.04.2018 11:00:00 19,0 11,2 20,4 18 10 22 12 WNW 0,0
20.04.2018 10:00:00 18,3 11,4 19,1 14 8 18 10 W 0,0
20.04.2018 09:00:00 16,8 11,9 17,0 14 8 22 12 WSW 0,0
20.04.2018 08:00:00 15,0 10,8 13,9 14 8 22 12 SSW 0,0
20.04.2018 07:00:00 13,3 9,9 12,2 14 8 25 14 S 0,0
20.04.2018 06:00:00 14,1 10,3 12,8 18 10 22 12 S 0,0
20.04.2018 05:00:00 15,1 10,8 13,3 18 10 25 14 SSE 0,0
20.04.2018 04:00:00 15,9 11,4 14,4 18 10 22 12 SSE 0,0
20.04.2018 03:00:00 16,4 11,1 14,6 18 10 25 14 SE 0,0
20.04.2018 02:00:00 17,3 10,8 15,7 18 10 25 14 SE 0,0
20.04.2018 01:00:00 18,4 10,4 16,4 14 8 22 12 SE 0,0
20.04.2018 00:00:00 19,2 10,7 17,2 14 8 22 12 SE 0,0
19.04.2018 23:00:00 19,9 10,3 17,5 14 8 22 12 ESE 0,0
19.04.2018 22:00:00 21,3 9,4 18,8 18 10 25 14 ESE 0,0
19.04.2018 21:00:00 22,3 9,4 19,8 18 10 25 14 ESE 0,0
19.04.2018 20:00:00 24,2 12,1 22,3 18 10 29 16 ESE 0,0
19.04.2018 19:00:00 25,9 11,2 24,6 22 12 29 16 ESE 0,0
19.04.2018 18:00:00 28,0 5,8 26,5 18 10 29 16 SE 0,0
19.04.2018 17:00:00 28,1 7,0 27,0 18 10 29 16 SSE 0,0
19.04.2018 16:00:00 27,8 8,4 27,3 18 10 29 16 SE 0,0
19.04.2018 15:00:00 27,2 8,0 27,0 22 12 29 16 SE 0,0
19.04.2018 14:00:00 26,0 8,3 26,4 18 10 32 18 S 0,0
19.04.2018 13:00:00 25,1 10,5 26,2 14 8 25 14 SSE 0,0
19.04.2018 12:00:00 24,3 11,9 25,1 14 8 22 12 SSE 0,0
19.04.2018 11:00:00 22,2 11,5 22,3 18 10 22 12 SE 0,0
19.04.2018 10:00:00 19,8 11,2 20,7 14 8 22 12 SE 0,0
19.04.2018 09:00:00 17,1 10,2 17,0 18 10 25 14 SSE 0,0
19.04.2018 08:00:00 15,3 9,6 14,0 18 10 25 14 SSE 0,0
19.04.2018 07:00:00 13,9 9,2 12,5 14 8 25 14 SSE 0,0
19.04.2018 06:00:00 13,7 8,5 12,3 18 10 29 16 SE 0,0
19.04.2018 05:00:00 14,9 8,3 13,4 22 12 29 16 SE 0,0
19.04.2018 04:00:00 14,7 8,6 12,9 14 8 22 12 ESE 0,0
19.04.2018 03:00:00 14,7 9,5 13,1 18 10 25 14 SE 0,0
19.04.2018 02:00:00 15,2 10,3 13,6 18 10 25 14 SE 0,0
19.04.2018 01:00:00 15,2 10,5 13,3 14 8 18 10 ESE 0,0
19.04.2018 00:00:00 14,9 11,8 13,7 14 8 22 12 E 0,0
18.04.2018 23:00:00 15,7 12,0 14,6 18 10 22 12 E 0,0
18.04.2018 22:00:00 16,2 11,7 14,8 18 10 22 12 E 0,0
18.04.2018 21:00:00 16,8 12,1 15,5 14 8 18 10 ENE 0,0
18.04.2018 20:00:00 17,7 13,0 16,7 14 8 18 10 E 0,0
18.04.2018 19:00:00 18,7 12,9 18,4 18 10 18 10 ENE 0,0
18.04.2018 18:00:00 21,3 10,7 22,4 7 4 11 6 NW 0,0
18.04.2018 17:00:00 22,6 10,1 23,6 11 6 18 10 SW 0,0
18.04.2018 16:00:00 22,9 11,2 23,8 11 6 22 12 SW 0,0
18.04.2018 15:00:00 21,6 10,8 23,5 14 8 29 16 SSW 0,0
18.04.2018 14:00:00 21,3 10,0 22,9 14 8 25 14 SSW 0,0
18.04.2018 13:00:00 20,9 10,2 22,9 14 8 25 14 SSW 0,0
18.04.2018 12:00:00 20,0 10,8 20,9 11 6 18 10 SSW 0,0
18.04.2018 11:00:00 18,3 10,4 19,8 11 6 18 10 SSW 0,0
18.04.2018 10:00:00 16,5 10,4 17,3 11 6 18 10 S 0,0
18.04.2018 09:00:00 14,4 9,9 13,9 11 6 14 8 S 0,0
18.04.2018 08:00:00 11,8 9,1 9,9 14 8 18 10 S 0,0
18.04.2018 07:00:00 11,0 8,6 8,8 14 8 22 12 S 0,0
18.04.2018 06:00:00 10,9 8,9 8,4 14 8 18 10 S 0,0
18.04.2018 05:00:00 11,0 8,9 9,1 14 8 22 12 S 0,0
18.04.2018 04:00:00 11,4 8,4 9,1 14 8 22 12 S 0,0
18.04.2018 03:00:00 11,6 8,9 7,0 11 6 14 8 SSE 0,0
18.04.2018 02:00:00 11,2 9,3 6,4 7 4 11 6 SSE 0,0
18.04.2018 01:00:00 11,7 9,0 9,4 7 4 18 10 S 0,0
18.04.2018 00:00:00 13,8 8,4 9,3 14 8 18 10 S 0,0
17.04.2018 23:00:00 14,1 8,6 7,5 11 6 14 8 SSE 0,0
17.04.2018 22:00:00 12,7 9,7 8,9 7 4 18 10 SSE 0,0
17.04.2018 21:00:00 15,3 8,8 11,1 14 8 18 10 S 0,0
17.04.2018 20:00:00 15,5 9,5 12,5 11 6 18 10 S 0,0
17.04.2018 19:00:00 16,8 9,2 15,7 11 6 25 14 SSW 0,0
17.04.2018 18:00:00 17,2 8,3 16,6 14 8 32 18 SSW 0,0
17.04.2018 17:00:00 17,3 8,5 17,5 22 12 32 18 SSW 0,0
17.04.2018 16:00:00 17,2 8,1 16,6 22 12 40 21 SW 0,0
17.04.2018 15:00:00 16,9 7,3 17,2 25 14 40 21 SSW 0,0
17.04.2018 14:00:00 16,7 6,7 18,1 29 16 43 23 SSW 0,0
17.04.2018 13:00:00 16,3 8,1 17,6 22 12 40 21 SSW 0,0
17.04.2018 12:00:00 15,5 8,6 16,2 22 12 36 19 S 0,0
17.04.2018 11:00:00 13,9 7,6 13,9 25 14 32 18 S 0,0
17.04.2018 10:00:00 12,4 7,2 12,6 18 10 25 14 S 0,0
17.04.2018 09:00:00 10,2 6,7 9,3 14 8 22 12 S 0,0
17.04.2018 08:00:00 8,5 5,7 7,6 14 8 22 12 S 0,0
17.04.2018 07:00:00 7,7 5,9 5,7 11 6 18 10 S 0,0
17.04.2018 06:00:00 7,0 5,4 5,4 14 8 18 10 S 0,0
17.04.2018 05:00:00 7,4 6,3 6,0 11 6 18 10 S 0,0
17.04.2018 04:00:00 7,2 6,2 5,8 14 8 18 10 S 0,0
17.04.2018 03:00:00 7,1 6,3 5,9 14 8 18 10 S 0,0

tt = Température de l'air
td = dewpoint
tt 5cm = Température de l'air 5cm
ff = Vitesse du vent
fx = gusts
dd = Direction du vent
rr = Quantités de précipitations

stations d'obs. à proximité